Time;durP1;ratioP1;P1;durP2;ratioP2;P2;SDS_P1;SDS_P2;PMS_P1;PMS_P2;Temp;Humidity;BMP_temperature;BMP_pressure;BME280_temperature;BME280_humidity;BME280_pressure;Samples;Min_cycle;Max_cycle;Signal;HPM_P1;HPM_P2
2022/05/21 05:03:52;;;;;;;5.00;2.40;;;14.40;99.90;;;;;;6194111;23;20048;-79
2022/05/21 05:06:18;;;;;;;3.55;2.25;;;14.50;99.90;;;;;;6167727;23;20044;-83
2022/05/21 05:08:43;;;;;;;2.92;1.92;;;14.50;99.90;;;;;;6168325;23;20202;-80
2022/05/21 05:11:09;;;;;;;6.90;1.80;;;14.60;99.90;;;;;;6167909;23;20020;-79
2022/05/21 05:13:35;;;;;;;4.60;2.15;;;14.60;99.90;;;;;;6167458;23;20145;-79
2022/05/21 05:16:01;;;;;;;4.97;2.00;;;14.70;99.90;;;;;;6193865;23;20031;-79
2022/05/21 05:18:30;;;;;;;4.05;1.80;;;14.80;99.90;;;;;;6168218;23;20320;-79
2022/05/21 05:20:58;;;;;;;3.15;1.85;;;14.80;99.90;;;;;;6167474;23;20321;-79
2022/05/21 05:23:24;;;;;;;4.57;1.60;;;14.80;99.90;;;;;;6167329;23;20005;-79
2022/05/21 05:25:49;;;;;;;6.68;1.67;;;14.90;99.90;;;;;;6168659;23;20307;-81
2022/05/21 05:28:19;;;;;;;3.50;1.52;;;15.10;99.90;;;;;;6143612;23;20016;-79
2022/05/21 05:30:47;;;;;;;2.63;1.42;;;15.10;99.90;;;;;;6167566;23;20043;-78
2022/05/21 05:33:14;;;;;;;3.25;1.50;;;15.20;99.90;;;;;;6194282;23;20005;-79
2022/05/21 05:35:39;;;;;;;2.38;1.25;;;15.20;99.20;;;;;;6167770;23;20009;-80
2022/05/21 05:38:07;;;;;;;3.95;1.40;;;15.30;99.10;;;;;;6194064;23;20016;-79
2022/05/21 05:40:33;;;;;;;3.10;1.50;;;15.40;98.50;;;;;;6193388;23;20005;-78
2022/05/21 05:43:00;;;;;;;4.72;1.27;;;15.50;98.50;;;;;;6168261;23;19997;-80
2022/05/21 05:45:26;;;;;;;4.75;1.63;;;15.50;97.90;;;;;;6193225;23;20191;-80
2022/05/21 05:47:52;;;;;;;3.33;1.58;;;15.50;97.70;;;;;;6168179;23;20011;-78
2022/05/21 05:50:18;;;;;;;3.60;1.30;;;15.60;97.40;;;;;;6165441;23;20005;-79
2022/05/21 05:52:44;;;;;;;3.83;1.85;;;15.70;96.70;;;;;;6167956;23;20007;-78
2022/05/21 05:55:10;;;;;;;2.00;1.13;;;15.80;96.10;;;;;;6167791;23;20009;-80
2022/05/21 05:57:35;;;;;;;4.15;1.40;;;15.80;96.50;;;;;;6142759;23;20017;-78
2022/05/21 06:00:06;;;;;;;6.80;1.42;;;15.90;95.70;;;;;;6168482;23;19992;-81
2022/05/21 06:05:22;;;;;;;2.00;0.88;;;16.00;94.80;;;;;;6192105;23;20001;-78
2022/05/21 06:08:04;;;;;;;3.65;2.03;;;16.00;95.10;;;;;;6142123;23;20172;-80
2022/05/21 06:10:35;;;;;;;1.70;0.90;;;16.00;93.90;;;;;;6192121;23;20001;-80
2022/05/21 06:13:04;;;;;;;2.25;0.80;;;16.10;93.80;;;;;;6139958;23;20369;-79
2022/05/21 06:15:31;;;;;;;2.75;1.15;;;16.10;93.70;;;;;;6175183;23;20020;-79
2022/05/21 06:17:57;;;;;;;2.63;0.95;;;16.20;93.70;;;;;;6166119;23;20112;-80
2022/05/21 06:20:26;;;;;;;3.28;1.15;;;16.20;93.70;;;;;;6141621;23;20075;-79
2022/05/21 06:22:52;;;;;;;3.85;0.80;;;16.30;93.90;;;;;;6142306;23;20009;-79
2022/05/21 06:25:23;;;;;;;2.45;0.88;;;16.40;92.90;;;;;;6166282;23;19993;-79
2022/05/21 06:27:51;;;;;;;1.98;0.95;;;16.40;92.40;;;;;;6193221;23;20004;-80
2022/05/21 06:30:22;;;;;;;2.55;0.68;;;16.50;92.50;;;;;;6165804;23;20020;-80
2022/05/21 06:32:47;;;;;;;2.63;0.80;;;16.60;92.30;;;;;;6142747;23;20008;-79
2022/05/21 06:35:15;;;;;;;2.60;0.88;;;16.70;91.30;;;;;;6142158;23;19993;-80
2022/05/21 06:37:40;;;;;;;1.77;0.63;;;16.80;91.30;;;;;;6192136;23;20001;-80
2022/05/21 06:40:07;;;;;;;3.13;0.80;;;16.90;90.90;;;;;;6166818;23;19985;-79
2022/05/21 06:42:37;;;;;;;2.47;0.60;;;17.00;89.60;;;;;;6195148;23;20226;-80
2022/05/21 06:45:04;;;;;;;2.78;0.70;;;17.00;90.50;;;;;;6194237;23;19992;-77
2022/05/21 06:47:29;;;;;;;3.03;0.73;;;17.20;90.70;;;;;;6192928;23;20005;-77
2022/05/21 06:49:56;;;;;;;3.90;1.25;;;17.30;90.20;;;;;;6199962;23;19991;-78
2022/05/21 06:52:24;;;;;;;2.38;0.75;;;17.40;90.20;;;;;;6165643;23;20032;-79
2022/05/21 06:54:50;;;;;;;3.50;1.08;;;17.70;89.10;;;;;;6192452;23;20016;-78
2022/05/21 06:57:17;;;;;;;1.80;0.60;;;17.60;88.80;;;;;;6192221;23;20213;-79
2022/05/21 06:59:43;;;;;;;4.35;0.82;;;17.80;88.30;;;;;;6192104;23;20012;-80
2022/05/21 07:02:08;;;;;;;2.42;0.75;;;17.90;88.80;;;;;;6191538;23;20171;-78
2022/05/21 07:07:35;;;;;;;2.78;0.82;;;18.10;87.60;;;;;;6192705;23;20023;-77
2022/05/21 07:10:10;;;;;;;2.78;0.60;;;18.10;87.90;;;;;;6192250;23;20001;-79
2022/05/21 07:12:36;;;;;;;2.22;0.60;;;18.10;86.00;;;;;;6165750;23;20027;-78
2022/05/21 07:15:05;;;;;;;4.22;1.05;;;18.00;86.30;;;;;;6191375;23;20062;-78
2022/05/21 07:17:30;;;;;;;1.73;0.60;;;18.10;85.50;;;;;;6165705;23;20183;-77
2022/05/21 07:19:56;;;;;;;1.73;0.50;;;18.00;86.60;;;;;;6192556;23;19989;-77
2022/05/21 07:22:22;;;;;;;2.22;0.70;;;18.00;86.80;;;;;;6191983;23;20001;-76
2022/05/21 07:24:48;;;;;;;1.80;0.50;;;18.00;86.70;;;;;;6192223;23;20001;-76
2022/05/21 07:27:14;;;;;;;2.22;0.60;;;18.20;87.70;;;;;;6165616;23;20016;-76
2022/05/21 07:29:41;;;;;;;2.50;0.77;;;18.30;87.30;;;;;;6191399;23;20001;-77
2022/05/21 07:32:22;;;;;;;2.20;0.63;;;18.60;87.20;;;;;;6191150;23;20005;-77
2022/05/21 07:34:48;;;;;;;1.90;0.60;;;18.40;86.80;;;;;;6191940;23;20005;-79
2022/05/21 07:37:14;;;;;;;1.83;0.80;;;18.50;86.00;;;;;;6192343;23;20191;-80
2022/05/21 07:39:41;;;;;;;2.70;0.52;;;18.50;86.30;;;;;;6191789;23;20083;-78
2022/05/21 07:42:07;;;;;;;2.30;0.60;;;18.60;86.50;;;;;;6192219;23;20001;-77
2022/05/21 07:44:33;;;;;;;2.20;0.60;;;18.70;86.10;;;;;;6192764;23;20365;-78
2022/05/21 07:46:59;;;;;;;1.30;0.50;;;18.70;84.50;;;;;;6167399;23;20021;-78
2022/05/21 07:49:24;;;;;;;1.73;0.65;;;18.80;85.20;;;;;;6167568;23;20197;-78
2022/05/21 07:51:50;;;;;;;3.85;0.60;;;18.60;85.50;;;;;;6194356;23;20055;-77
2022/05/21 07:54:16;;;;;;;2.92;0.80;;;18.40;85.70;;;;;;6194270;23;20001;-79
2022/05/21 07:56:42;;;;;;;2.40;0.50;;;18.40;85.40;;;;;;6193401;23;20220;-79
2022/05/21 07:59:08;;;;;;;1.38;0.50;;;18.50;84.90;;;;;;6194167;23;20012;-78
2022/05/21 08:01:34;;;;;;;3.25;0.47;;;18.60;83.90;;;;;;6192885;23;20013;-77
2022/05/21 08:03:59;;;;;;;3.30;0.50;;;18.60;83.80;;;;;;6193776;23;20008;-77
2022/05/21 08:06:26;;;;;;;2.65;0.40;;;18.70;84.00;;;;;;6193711;23;20012;-78
2022/05/21 08:08:54;;;;;;;2.72;0.60;;;18.80;84.90;;;;;;6169497;23;19989;-78
2022/05/21 08:11:21;;;;;;;1.20;0.40;;;18.70;83.10;;;;;;6193636;23;20017;-76
2022/05/21 08:13:47;;;;;;;1.50;0.40;;;18.60;83.90;;;;;;6191574;23;19989;-78
2022/05/21 08:16:14;;;;;;;1.45;0.32;;;18.70;83.80;;;;;;6192480;23;20025;-77
2022/05/21 08:18:41;;;;;;;3.05;0.43;;;18.70;83.50;;;;;;6192921;23;20001;-77
2022/05/21 08:21:07;;;;;;;2.33;0.25;;;18.70;82.90;;;;;;6193359;23;20052;-77
2022/05/21 08:29:03;;;;;;;2.10;0.47;;;18.80;82.40;;;;;;6194019;23;20005;-77
2022/05/21 08:31:29;;;;;;;2.08;0.20;;;19.00;82.50;;;;;;6192318;23;20257;-77
2022/05/21 08:33:55;;;;;;;1.83;0.47;;;18.90;82.20;;;;;;6193408;23;20001;-77
2022/05/21 08:36:20;;;;;;;1.77;0.32;;;19.00;82.80;;;;;;6193931;23;20044;-77
2022/05/21 08:38:46;;;;;;;2.35;0.50;;;19.10;82.50;;;;;;6142640;23;20009;-77
2022/05/21 08:41:20;;;;;;;1.52;0.40;;;19.20;81.60;;;;;;6167953;23;20075;-77
2022/05/21 08:43:55;;;;;;;2.47;0.30;;;19.10;81.10;;;;;;6193069;23;20100;-78
2022/05/21 08:46:42;;;;;;;3.10;0.52;;;19.20;82.80;;;;;;6166779;23;20036;-77
2022/05/21 08:49:25;;;;;;;1.52;0.40;;;19.20;81.00;;;;;;6167310;23;20005;-77
2022/05/21 08:52:01;;;;;;;3.10;0.40;;;19.10;80.60;;;;;;6193405;23;20005;-79
2022/05/21 08:54:40;;;;;;;1.52;0.40;;;19.00;81.40;;;;;;6192880;23;20075;-79
2022/05/21 08:57:14;;;;;;;1.35;0.32;;;19.00;81.50;;;;;;6193173;23;20236;-77
2022/05/21 08:59:47;;;;;;;1.10;0.20;;;19.10;80.40;;;;;;6192877;23;20048;-80
2022/05/21 09:02:19;;;;;;;1.25;0.30;;;19.10;80.90;;;;;;6192625;23;20072;-78
2022/05/21 09:04:45;;;;;;;1.63;0.30;;;19.40;80.80;;;;;;6193093;23;20048;-79
2022/05/21 09:07:23;;;;;;;1.63;0.32;;;19.50;79.00;;;;;;6193156;23;20202;-77
2022/05/21 09:10:29;;;;;;;1.88;0.25;;;19.70;79.90;;;;;;6167012;23;20008;-78
2022/05/21 09:13:31;;;;;;;2.25;0.40;;;19.70;80.10;;;;;;6191234;23;20291;-78
2022/05/21 09:18:42;;;;;;;2.75;0.70;;;19.60;79.50;;;;;;6192800;23;20005;-77
2022/05/21 09:21:10;;;;;;;1.75;0.80;;;19.80;80.30;;;;;;6142476;23;20083;-79
2022/05/21 09:23:54;;;;;;;2.55;0.40;;;19.80;80.10;;;;;;6141813;23;20001;-77
2022/05/21 09:26:25;;;;;;;1.40;0.30;;;19.80;79.60;;;;;;6192649;23;20074;-76
2022/05/21 09:28:52;;;;;;;1.92;0.40;;;19.80;79.60;;;;;;6192771;23;20005;-78
2022/05/21 09:34:29;;;;;;;2.58;0.40;;;19.70;80.00;;;;;;6167024;23;20286;-78
2022/05/21 09:36:56;;;;;;;1.45;0.40;;;19.70;80.20;;;;;;6193029;23;20312;-81
2022/05/21 09:39:38;;;;;;;2.53;0.68;;;19.70;80.90;;;;;;6193119;23;20008;-79
2022/05/21 09:45:29;;;;;;;1.80;0.40;;;20.10;80.70;;;;;;6193210;23;20307;-80
2022/05/21 09:48:04;;;;;;;1.20;0.30;;;20.30;80.10;;;;;;6166426;23;20013;-80
2022/05/21 09:50:45;;;;;;;2.28;0.40;;;20.20;79.90;;;;;;6192001;23;20028;-80
2022/05/21 09:53:21;;;;;;;2.20;0.50;;;20.30;80.10;;;;;;6192876;23;20020;-80
2022/05/21 09:55:58;;;;;;;2.60;0.40;;;20.40;79.90;;;;;;6192145;23;20367;-81
2022/05/21 09:58:24;;;;;;;4.95;0.60;;;20.30;80.60;;;;;;6193250;23;20005;-80
2022/05/21 10:00:55;;;;;;;1.63;0.40;;;20.50;80.40;;;;;;6191814;23;20013;-78
2022/05/21 10:03:48;;;;;;;1.48;0.40;;;20.60;79.60;;;;;;6192703;23;20016;-78
2022/05/21 10:06:19;;;;;;;1.70;0.43;;;20.70;79.40;;;;;;6192669;23;20007;-78
2022/05/21 10:12:01;;;;;;;1.10;0.40;;;21.00;78.30;;;;;;6192146;23;20197;-79
2022/05/21 10:14:41;;;;;;;3.22;0.80;;;21.00;79.00;;;;;;6191756;23;20008;-78
2022/05/21 10:17:20;;;;;;;2.55;0.88;;;21.20;80.10;;;;;;6191565;23;20043;-79
2022/05/21 10:19:57;;;;;;;1.92;0.52;;;21.10;78.50;;;;;;6166202;23;20036;-79
2022/05/21 10:22:36;;;;;;;2.42;0.47;;;21.30;78.50;;;;;;6166887;23;20064;-79
2022/05/21 10:25:15;;;;;;;2.15;0.52;;;21.10;78.50;;;;;;6193113;23;19997;-79
2022/05/21 10:27:53;;;;;;;1.50;0.40;;;21.00;79.40;;;;;;6192696;23;19997;-80
2022/05/21 10:30:46;;;;;;;1.92;0.50;;;21.00;78.00;;;;;;6192139;23;20027;-80
2022/05/21 10:33:40;;;;;;;1.33;0.52;;;21.10;78.10;;;;;;6192822;23;20404;-79
2022/05/21 10:36:14;;;;;;;2.63;0.63;;;20.90;77.60;;;;;;6148854;23;20042;-81
2022/05/21 10:38:55;;;;;;;2.30;0.60;;;21.00;78.80;;;;;;6166454;23;20048;-82
2022/05/21 10:41:34;;;;;;;2.40;0.43;;;21.30;79.30;;;;;;6166616;23;20035;-81
2022/05/21 10:44:37;;;;;;;2.53;0.40;;;21.50;76.30;;;;;;6166597;23;20278;-80
2022/05/21 10:47:30;;;;;;;4.85;0.80;;;21.60;76.30;;;;;;6164650;23;20045;-80
2022/05/21 10:50:18;;;;;;;1.75;0.60;;;21.70;76.90;;;;;;6191804;23;20326;-78
2022/05/21 10:53:06;;;;;;;3.30;0.52;;;21.90;76.20;;;;;;6165613;23;20107;-79
2022/05/21 10:56:08;;;;;;;4.93;0.50;;;22.10;75.70;;;;;;6166271;23;20056;-79
2022/05/21 10:59:02;;;;;;;2.92;0.65;;;22.00;75.80;;;;;;6166691;23;20008;-80
2022/05/21 11:01:50;;;;;;;3.28;0.50;;;22.40;75.20;;;;;;6191666;23;20011;-80
2022/05/21 11:04:51;;;;;;;2.20;0.40;;;22.50;74.00;;;;;;6192907;23;20032;-79
2022/05/21 11:07:33;;;;;;;1.35;0.40;;;22.80;73.90;;;;;;6192620;23;19997;-79
2022/05/21 11:10:11;;;;;;;2.22;0.75;;;22.90;72.80;;;;;;6166053;23;20025;-80
2022/05/21 11:12:37;;;;;;;;;;;22.90;72.80;;;;;;6193623;23;20060;-78
2022/05/21 11:15:11;;;;;;;2.50;0.50;;;23.00;73.10;;;;;;6169365;23;19904;-80
2022/05/21 11:17:57;;;;;;;1.80;0.47;;;23.10;73.60;;;;;;6199070;23;20019;-80
2022/05/21 11:20:32;;;;;;;4.10;0.70;;;23.30;72.00;;;;;;6209789;23;20005;-80
2022/05/21 11:23:12;;;;;;;2.60;0.50;;;23.60;71.30;;;;;;6203813;23;20027;-80
2022/05/21 11:25:56;;;;;;;1.25;0.30;;;23.80;71.70;;;;;;6202765;23;20001;-81
2022/05/21 11:28:34;;;;;;;0.90;0.30;;;24.20;70.00;;;;;;6196540;23;20009;-79
2022/05/21 11:39:44;;;;;;;5.55;1.45;;;26.40;66.80;;;;;;6194003;23;20001;-80
2022/05/21 11:42:16;;;;;;;1.77;0.40;;;27.10;63.80;;;;;;6193521;23;20048;-80
2022/05/21 11:45:11;;;;;;;1.60;0.40;;;27.50;63.70;;;;;;6193789;23;19997;-78
2022/05/21 11:47:42;;;;;;;1.35;0.50;;;28.40;62.10;;;;;;6161865;23;20009;-78
2022/05/21 11:50:21;;;;;;;2.30;0.50;;;29.50;61.50;;;;;;6167538;23;20001;-79
2022/05/21 11:53:01;;;;;;;2.30;0.32;;;30.20;58.70;;;;;;6222991;23;20008;-78
2022/05/21 11:55:49;;;;;;;1.45;0.45;;;30.60;58.30;;;;;;6223854;23;20024;-80
2022/05/21 11:58:15;;;;;;;1.55;0.40;;;31.50;56.90;;;;;;6224208;23;20004;-78
2022/05/21 12:00:44;;;;;;;2.63;0.50;;;32.00;56.00;;;;;;6196031;23;20024;-79
2022/05/21 12:03:13;;;;;;;3.42;0.30;;;32.60;55.10;;;;;;6223727;23;20034;-80
2022/05/21 12:05:53;;;;;;;3.17;0.50;;;32.80;54.80;;;;;;6223442;23;20001;-79
2022/05/21 12:08:29;;;;;;;;;;;33.70;53.30;;;;;;6198861;23;20001;-79
2022/05/21 12:11:07;;;;;;;3.45;0.40;;;32.90;52.90;;;;;;6197723;23;19899;-80
2022/05/21 12:13:33;;;;;;;2.25;0.50;;;33.20;52.20;;;;;;6174436;23;20047;-82
2022/05/21 12:16:00;;;;;;;2.15;0.45;;;33.70;52.70;;;;;;6222169;23;20021;-82
2022/05/21 12:18:34;;;;;;;2.00;0.50;;;34.50;52.40;;;;;;6223971;23;20015;-81
2022/05/21 12:21:01;;;;;;;1.35;0.50;;;34.50;51.50;;;;;;6224380;23;20004;-78
2022/05/21 12:23:32;;;;;;;2.40;0.68;;;34.20;49.70;;;;;;6225033;23;20234;-78
2022/05/21 12:26:08;;;;;;;2.65;0.45;;;34.40;50.00;;;;;;6224559;23;20317;-78
2022/05/21 12:28:50;;;;;;;2.28;0.43;;;33.80;50.20;;;;;;6225483;23;19996;-79
2022/05/21 12:31:25;;;;;;;1.85;0.40;;;34.10;50.60;;;;;;6224708;23;20009;-78
2022/05/21 12:33:55;;;;;;;2.35;0.50;;;34.90;49.70;;;;;;6225039;23;20126;-78
2022/05/21 12:36:29;;;;;;;3.08;0.40;;;35.00;49.40;;;;;;6225538;23;20186;-78
2022/05/21 12:39:00;;;;;;;2.08;0.50;;;35.30;49.50;;;;;;6225235;23;20124;-78
2022/05/21 12:41:35;;;;;;;1.38;0.45;;;35.80;48.80;;;;;;6225328;23;20001;-78
2022/05/21 12:44:02;;;;;;;0.90;0.30;;;36.30;48.20;;;;;;6224368;23;20198;-79
2022/05/21 12:46:35;;;;;;;2.30;0.40;;;36.30;46.90;;;;;;6224499;23;20043;-79
2022/05/21 12:49:09;;;;;;;2.00;0.32;;;36.30;47.30;;;;;;6224500;23;20292;-82
2022/05/21 12:51:42;;;;;;;1.45;0.40;;;37.20;46.60;;;;;;6198081;23;20042;-80
2022/05/21 12:54:23;;;;;;;1.70;0.40;;;37.20;45.60;;;;;;6174012;23;20198;-80
2022/05/21 12:56:49;;;;;;;2.45;0.50;;;38.00;46.30;;;;;;6223815;23;20324;-79
2022/05/21 12:59:22;;;;;;;2.07;0.47;;;38.40;45.30;;;;;;6224533;23;20095;-78
2022/05/21 13:01:54;;;;;;;1.48;0.40;;;38.50;44.40;;;;;;6223443;23;20012;-78
2022/05/21 13:04:38;;;;;;;2.40;0.47;;;38.00;44.30;;;;;;6225116;23;19997;-78
2022/05/21 13:07:21;;;;;;;6.22;0.50;;;37.80;44.60;;;;;;6224357;23;20016;-78
2022/05/21 13:10:01;;;;;;;4.03;0.60;;;37.60;45.20;;;;;;6224538;23;20239;-79
2022/05/21 13:12:36;;;;;;;2.75;0.50;;;38.00;44.90;;;;;;6198654;23;19996;-78
2022/05/21 13:15:03;;;;;;;1.90;0.43;;;39.00;44.30;;;;;;6223849;23;20001;-78
2022/05/21 13:17:42;;;;;;;2.08;0.40;;;39.40;43.60;;;;;;6224759;23;20044;-77
2022/05/21 13:20:16;;;;;;;1.65;0.40;;;39.60;42.40;;;;;;6197348;23;20043;-79
2022/05/21 13:23:02;;;;;;;2.15;0.45;;;38.90;43.00;;;;;;6198120;23;20008;-78
2022/05/21 13:25:27;;;;;;;2.15;0.50;;;38.60;43.90;;;;;;6224762;23;20009;-78
2022/05/21 13:27:55;;;;;;;2.03;0.43;;;37.90;43.30;;;;;;6224047;23;20011;-79
2022/05/21 13:30:35;;;;;;;1.52;0.40;;;37.40;43.70;;;;;;6224432;23;19997;-79
2022/05/21 13:33:03;;;;;;;2.10;0.40;;;37.60;43.90;;;;;;6198422;23;20051;-79
2022/05/21 13:35:35;;;;;;;2.47;0.47;;;38.40;43.50;;;;;;6224492;23;20004;-79
2022/05/21 13:38:06;;;;;;;1.48;0.40;;;39.90;43.20;;;;;;6223868;23;20005;-79
2022/05/21 13:40:46;;;;;;;1.73;0.40;;;40.10;41.50;;;;;;6224270;23;20051;-78
2022/05/21 13:43:13;;;;;;;2.10;0.52;;;39.40;42.20;;;;;;6197856;23;20004;-78
2022/05/21 13:45:53;;;;;;;1.50;0.40;;;39.30;42.70;;;;;;6223464;23;20024;-78
2022/05/21 13:48:22;;;;;;;1.80;0.30;;;;;;;;;;6224944;23;20266;-79
2022/05/21 13:50:48;;;;;;;4.18;0.50;;;38.80;41.30;;;;;;6224131;23;20015;-78
2022/05/21 13:53:24;;;;;;;3.60;0.52;;;39.30;42.40;;;;;;6225192;23;20000;-77
2022/05/21 13:56:05;;;;;;;1.45;0.40;;;38.90;42.60;;;;;;6223659;23;20009;-77
2022/05/21 13:58:34;;;;;;;2.67;0.50;;;38.50;42.50;;;;;;6197537;23;20001;-78
2022/05/21 14:01:03;;;;;;;2.40;0.60;;;38.30;42.90;;;;;;6196435;23;20020;-78
2022/05/21 14:03:32;;;;;;;3.28;0.63;;;38.40;42.90;;;;;;6224408;23;20070;-78
2022/05/21 14:06:01;;;;;;;1.75;0.57;;;38.70;42.70;;;;;;6224036;23;20126;-79
2022/05/21 14:08:37;;;;;;;1.80;0.65;;;39.00;42.50;;;;;;6197560;23;20035;-78
2022/05/21 14:11:06;;;;;;;3.55;0.55;;;39.50;42.60;;;;;;6197362;23;20332;-79
2022/05/21 14:13:36;;;;;;;1.85;0.32;;;39.80;42.00;;;;;;6224211;23;20000;-78
2022/05/21 14:16:31;;;;;;;2.80;0.52;;;39.60;43.00;;;;;;6221570;23;20372;-78
2022/05/21 14:19:10;;;;;;;2.17;0.40;;;40.40;42.30;;;;;;6223629;23;19996;-78
2022/05/21 14:21:58;;;;;;;1.80;0.40;;;40.60;41.40;;;;;;6224552;23;19996;-78
2022/05/21 14:24:44;;;;;;;2.15;0.52;;;39.60;42.30;;;;;;6224732;23;20011;-79
2022/05/21 14:27:16;;;;;;;3.97;0.68;;;37.80;43.20;;;;;;6224369;23;20059;-79
2022/05/21 14:29:50;;;;;;;2.05;0.50;;;35.70;44.90;;;;;;6173354;23;20004;-79
2022/05/21 14:32:15;;;;;;;1.95;0.50;;;35.90;44.70;;;;;;6223392;23;20004;-79
2022/05/21 14:34:45;;;;;;;3.13;0.82;;;37.00;44.40;;;;;;6224057;23;20000;-80
2022/05/21 14:37:28;;;;;;;2.95;0.60;;;38.10;43.60;;;;;;6197352;23;20080;-78
2022/05/21 14:39:54;;;;;;;2.78;0.60;;;39.00;42.90;;;;;;6197405;23;20211;-78
2022/05/21 14:42:20;;;;;;;2.88;0.50;;;40.10;42.70;;;;;;6173107;23;20050;-78
2022/05/21 14:44:47;;;;;;;2.22;0.55;;;40.20;42.30;;;;;;6224060;23;20007;-79
2022/05/21 14:52:51;;;;;;;1.90;0.50;;;38.80;42.70;;;;;;6197966;23;20233;-78
2022/05/21 14:55:22;;;;;;;3.10;0.90;;;39.40;42.70;;;;;;6227144;23;20016;-80
2022/05/21 14:57:48;;;;;;;3.20;0.90;;;39.80;42.10;;;;;;6227449;23;20039;-79
2022/05/21 15:00:15;;;;;;;2.35;0.35;;;40.10;41.80;;;;;;6200106;23;19996;-78
2022/05/21 15:02:41;;;;;;;3.20;0.47;;;40.10;41.60;;;;;;6227113;23;20004;-78
2022/05/21 15:05:09;;;;;;;1.65;0.45;;;40.00;41.70;;;;;;6227215;23;20019;-78
2022/05/21 15:07:40;;;;;;;1.75;0.50;;;40.60;42.40;;;;;;6227805;23;20028;-80
2022/05/21 15:10:07;;;;;;;2.83;0.70;;;39.80;41.60;;;;;;6227093;23;20007;-79
2022/05/21 15:12:33;;;;;;;2.10;0.50;;;38.90;42.30;;;;;;6201181;23;20090;-78
2022/05/21 15:15:02;;;;;;;2.17;0.57;;;37.90;43.00;;;;;;6226626;23;20008;-79
2022/05/21 15:17:28;;;;;;;3.05;0.57;;;37.60;43.00;;;;;;6227054;23;20016;-78
2022/05/21 15:19:54;;;;;;;2.20;0.57;;;37.50;43.10;;;;;;6199971;23;20005;-78
2022/05/21 15:22:25;;;;;;;2.72;0.43;;;36.20;43.90;;;;;;6227352;23;20027;-80
2022/05/21 15:24:51;;;;;;;3.22;0.50;;;34.30;45.20;;;;;;6226586;23;20008;-79
2022/05/21 15:27:16;;;;;;;2.72;0.60;;;32.60;46.10;;;;;;6226919;23;20415;-78
2022/05/21 15:29:44;;;;;;;2.63;0.50;;;31.20;47.70;;;;;;6228049;23;20024;-78
2022/05/21 15:32:10;;;;;;;3.45;0.70;;;30.10;49.40;;;;;;6226869;23;20024;-79
2022/05/21 15:34:36;;;;;;;2.35;0.70;;;29.40;50.60;;;;;;6227203;23;20000;-79
2022/05/21 15:37:02;;;;;;;4.03;0.82;;;28.90;51.70;;;;;;6200407;23;20005;-79
2022/05/21 15:39:28;;;;;;;1.83;0.55;;;28.50;51.10;;;;;;6201081;23;20008;-79
2022/05/21 15:41:56;;;;;;;1.95;0.60;;;28.10;52.00;;;;;;6175397;23;19985;-80
2022/05/21 15:44:22;;;;;;;1.23;0.52;;;27.90;51.80;;;;;;6200512;23;20175;-79
2022/05/21 15:46:48;;;;;;;2.33;0.70;;;27.90;51.60;;;;;;6227825;23;20166;-78
2022/05/21 15:49:16;;;;;;;2.20;0.60;;;27.90;51.80;;;;;;6229453;23;20000;-80
2022/05/21 15:51:42;;;;;;;2.10;0.70;;;28.00;51.10;;;;;;6235638;23;19997;-78
2022/05/21 15:54:11;;;;;;;1.98;0.50;;;27.80;52.00;;;;;;6216309;23;20001;-78
2022/05/21 15:56:38;;;;;;;1.83;0.40;;;27.60;52.40;;;;;;6191884;23;20019;-77
2022/05/21 15:59:04;;;;;;;3.78;0.70;;;27.60;52.40;;;;;;6240036;23;20011;-80
2022/05/21 16:01:34;;;;;;;2.67;0.93;;;27.50;52.60;;;;;;6227616;23;20066;-80
2022/05/21 16:04:00;;;;;;;2.22;0.45;;;27.40;52.50;;;;;;6227873;23;20052;-81
2022/05/21 16:06:26;;;;;;;2.75;0.43;;;27.20;53.30;;;;;;6199940;23;20095;-79
2022/05/21 16:08:53;;;;;;;1.65;0.63;;;27.10;53.30;;;;;;6225698;23;20186;-78
2022/05/21 16:11:21;;;;;;;2.15;0.55;;;27.70;52.70;;;;;;6225106;23;20011;-79
2022/05/21 16:13:48;;;;;;;1.73;0.70;;;28.80;52.10;;;;;;6225129;23;20000;-77
2022/05/21 16:16:14;;;;;;;2.03;0.52;;;30.00;50.70;;;;;;6196502;23;20046;-79
2022/05/21 16:18:43;;;;;;;1.70;0.75;;;30.70;48.90;;;;;;6198421;23;20055;-78
2022/05/21 16:21:16;;;;;;;2.28;0.90;;;30.70;49.30;;;;;;6224397;23;20001;-80
2022/05/21 16:23:42;;;;;;;2.72;0.80;;;30.00;49.80;;;;;;6198659;23;20226;-77
2022/05/21 16:26:08;;;;;;;1.95;0.60;;;31.80;48.60;;;;;;6198081;23;20028;-78
2022/05/21 16:28:34;;;;;;;2.03;0.30;;;34.00;46.20;;;;;;6225816;23;20019;-79
2022/05/21 16:31:01;;;;;;;3.38;0.65;;;35.20;44.70;;;;;;6224354;23;20019;-80
2022/05/21 16:33:28;;;;;;;2.10;0.50;;;36.20;43.80;;;;;;6225699;23;20072;-80
2022/05/21 16:35:53;;;;;;;5.82;0.70;;;35.90;43.50;;;;;;6225772;23;20047;-79
2022/05/21 16:38:20;;;;;;;2.10;0.47;;;34.90;44.20;;;;;;6224993;23;20000;-80
2022/05/21 16:40:47;;;;;;;3.13;0.70;;;33.90;45.90;;;;;;6225295;23;20004;-79
2022/05/21 16:43:14;;;;;;;2.20;0.70;;;32.30;47.00;;;;;;6197997;23;19996;-78
2022/05/21 16:45:44;;;;;;;2.35;0.75;;;30.80;48.10;;;;;;6224120;23;20012;-81
2022/05/21 16:48:16;;;;;;;2.58;0.47;;;30.10;49.10;;;;;;6224353;23;20004;-80
2022/05/21 16:50:43;;;;;;;2.00;0.65;;;29.40;49.90;;;;;;6225841;23;20064;-79
2022/05/21 16:53:08;;;;;;;2.47;0.30;;;28.70;50.70;;;;;;6173523;23;20005;-80
2022/05/21 16:55:34;;;;;;;2.33;0.60;;;28.10;50.90;;;;;;6224880;23;20054;-79
2022/05/21 16:58:00;;;;;;;4.28;0.70;;;27.40;52.10;;;;;;6224571;23;20008;-80
2022/05/21 17:00:26;;;;;;;1.80;0.43;;;26.80;52.80;;;;;;6224313;23;20051;-81
2022/05/21 17:02:52;;;;;;;2.00;0.40;;;26.70;53.50;;;;;;6198025;23;20226;-79
2022/05/21 17:05:17;;;;;;;6.05;2.92;;;27.00;53.00;;;;;;6197609;23;20306;-80
2022/05/21 17:07:43;;;;;;;3.47;0.55;;;27.30;52.40;;;;;;6198106;23;20004;-80
2022/05/21 17:10:11;;;;;;;1.88;0.50;;;28.00;51.70;;;;;;6223792;23;20292;-79
2022/05/21 17:12:37;;;;;;;3.20;1.30;;;28.90;50.80;;;;;;6224834;23;19997;-79
2022/05/21 17:15:05;;;;;;;2.63;0.77;;;29.50;49.50;;;;;;6197167;23;20105;-80
2022/05/21 17:17:31;;;;;;;2.63;0.50;;;29.20;50.70;;;;;;6224592;23;19997;-79
2022/05/21 17:19:57;;;;;;;1.42;0.63;;;29.80;49.70;;;;;;6224740;23;20189;-78
2022/05/21 17:22:24;;;;;;;3.25;0.85;;;30.70;49.00;;;;;;6224250;23;20022;-78
2022/05/21 17:24:50;;;;;;;1.67;0.57;;;30.70;48.60;;;;;;6224568;23;20191;-77
2022/05/21 17:32:54;;;;;;;3.10;0.70;;;30.20;49.30;;;;;;6224480;23;20012;-78
2022/05/21 17:35:30;;;;;;;4.90;0.93;;;29.90;49.30;;;;;;6172715;23;20015;-79
2022/05/21 17:37:56;;;;;;;2.55;0.93;;;29.70;50.10;;;;;;6173304;23;20072;-79
2022/05/21 17:40:22;;;;;;;2.25;0.63;;;29.20;50.30;;;;;;6197099;23;20008;-79
2022/05/21 17:42:47;;;;;;;2.97;0.77;;;28.60;50.90;;;;;;6223890;23;20056;-80
2022/05/21 17:45:16;;;;;;;2.45;0.60;;;28.30;51.60;;;;;;6223296;23;20152;-80
2022/05/21 17:47:42;;;;;;;3.75;1.33;;;28.00;51.90;;;;;;6198149;23;20179;-79
2022/05/21 17:50:11;;;;;;;3.28;0.82;;;27.30;52.70;;;;;;6224186;23;20004;-79
2022/05/21 17:52:37;;;;;;;2.28;1.13;;;27.00;53.70;;;;;;6224015;23;20024;-77
2022/05/21 17:55:04;;;;;;;3.05;1.30;;;26.70;54.40;;;;;;6197444;23;20179;-79
2022/05/21 17:57:30;;;;;;;3.83;1.23;;;26.70;54.60;;;;;;6224330;23;20005;-79
2022/05/21 17:59:56;;;;;;;3.80;1.10;;;26.50;55.00;;;;;;6196930;23;20024;-80
2022/05/21 18:02:22;;;;;;;3.05;0.77;;;26.20;55.50;;;;;;6222144;23;20021;-79
2022/05/21 18:04:51;;;;;;;3.15;0.75;;;25.70;56.40;;;;;;6223850;23;20004;-80
2022/05/21 18:07:17;;;;;;;5.55;1.63;;;25.30;57.40;;;;;;6197167;23;20278;-78
2022/05/21 18:09:44;;;;;;;3.40;1.23;;;25.00;58.10;;;;;;6224298;23;19985;-77
2022/05/21 18:12:13;;;;;;;3.72;0.95;;;24.90;58.10;;;;;;6223267;23;19996;-77
2022/05/21 18:14:40;;;;;;;;;;;24.70;58.80;;;;;;6224381;23;20323;-78
2022/05/21 18:19:51;;;;;;;2.63;0.90;;;24.20;59.70;;;;;;6223449;23;20404;-77
2022/05/21 18:22:17;;;;;;;3.05;1.20;;;24.00;60.20;;;;;;6223706;23;20039;-78
2022/05/21 18:24:43;;;;;;;4.00;1.00;;;23.70;61.10;;;;;;6224342;23;20000;-79
2022/05/21 18:27:08;;;;;;;3.70;0.70;;;23.50;61.50;;;;;;6223125;23;20004;-78
2022/05/21 18:29:35;;;;;;;2.60;0.98;;;23.30;62.30;;;;;;6197796;23;20027;-77
2022/05/21 18:32:03;;;;;;;3.13;1.07;;;23.00;62.90;;;;;;6222827;23;20114;-79
2022/05/21 18:34:29;;;;;;;3.40;1.23;;;22.70;63.50;;;;;;6223795;23;20001;-79
2022/05/21 18:36:56;;;;;;;2.85;1.10;;;22.40;64.30;;;;;;6197668;23;20178;-78
2022/05/21 18:39:24;;;;;;;4.25;1.17;;;22.20;65.00;;;;;;6223601;23;19996;-79
2022/05/21 18:41:50;;;;;;;5.15;1.67;;;22.10;65.40;;;;;;6224097;23;20175;-79
2022/05/21 18:44:17;;;;;;;3.70;1.35;;;21.90;65.90;;;;;;6197164;23;20001;-78
2022/05/21 18:46:42;;;;;;;3.72;1.17;;;21.70;66.50;;;;;;6223167;23;20207;-79
2022/05/21 18:49:10;;;;;;;7.93;1.45;;;21.60;67.10;;;;;;6197081;23;20012;-79
2022/05/21 18:51:39;;;;;;;3.80;1.00;;;21.40;67.20;;;;;;6223936;23;20031;-79
2022/05/21 18:54:11;;;;;;;3.80;1.30;;;21.20;67.90;;;;;;6196647;23;20032;-79
2022/05/21 18:56:37;;;;;;;4.90;1.48;;;21.00;68.50;;;;;;6223795;23;20028;-78